Time;durP1;ratioP1;P1;durP2;ratioP2;P2;SDS_P1;SDS_P2;PMS_P1;PMS_P2;Temp;Humidity;BMP_temperature;BMP_pressure;BME280_temperature;BME280_humidity;BME280_pressure;Samples;Min_cycle;Max_cycle;Signal;HPM_P1;HPM_P2
2021/10/05 00:01:14;;;;;;;43.38;26.85;;;;;;;-144.89;100.00;52852.59;5043552;28;20036;-81
2021/10/05 00:03:59;;;;;;;42.00;25.90;;;;;;;-144.89;100.00;52852.59;5056866;28;20064;-81
2021/10/05 00:06:43;;;;;;;43.72;24.48;;;;;;;-144.89;100.00;52852.59;5057459;28;20045;-81
2021/10/05 00:09:28;;;;;;;35.53;24.23;;;;;;;-144.89;100.00;52852.59;5057485;28;20090;-81
2021/10/05 00:12:13;;;;;;;39.45;25.95;;;;;;;-144.89;100.00;52852.59;5058146;28;20044;-81
2021/10/05 00:14:58;;;;;;;42.47;26.40;;;;;;;-144.89;100.00;52852.59;5058008;28;20056;-82
2021/10/05 00:17:42;;;;;;;41.53;27.48;;;;;;;-144.89;100.00;52852.59;5057945;28;20041;-81
2021/10/05 00:20:28;;;;;;;45.20;27.33;;;;;;;-144.89;100.00;52852.59;5058169;28;20052;-81
2021/10/05 00:23:12;;;;;;;43.08;26.38;;;;;;;-144.89;100.00;52852.59;5058005;28;20045;-82
2021/10/05 00:25:57;;;;;;;37.80;25.77;;;;;;;-144.89;100.00;52852.59;5058060;28;20063;-81
2021/10/05 00:28:41;;;;;;;44.63;28.15;;;;;;;-144.89;100.00;52852.59;5057762;28;20349;-82
2021/10/05 00:31:26;;;;;;;39.10;25.98;;;;;;;-144.89;100.00;52852.59;5043085;28;20041;-82
2021/10/05 00:34:10;;;;;;;39.30;25.58;;;;;;;-144.89;100.00;52852.59;5057807;28;20045;-82
2021/10/05 00:36:55;;;;;;;41.28;25.13;;;;;;;-144.89;100.00;52852.59;5057696;28;20041;-82
2021/10/05 00:39:39;;;;;;;40.85;26.45;;;;;;;-144.89;100.00;52852.59;5057645;28;20033;-82
2021/10/05 00:42:24;;;;;;;35.92;24.05;;;;;;;-144.89;100.00;52852.59;5042911;28;20449;-82
2021/10/05 00:45:09;;;;;;;38.05;24.02;;;;;;;-144.89;100.00;52852.59;5057422;28;20116;-82
2021/10/05 00:47:54;;;;;;;35.92;25.20;;;;;;;-144.89;100.00;52852.59;5056740;28;20041;-82
2021/10/05 00:50:38;;;;;;;43.58;26.92;;;;;;;-144.89;100.00;52852.59;5056608;28;20330;-82
2021/10/05 00:53:23;;;;;;;36.38;24.75;;;;;;;-144.89;100.00;52852.59;5057375;28;20033;-82
2021/10/05 00:56:07;;;;;;;40.50;25.90;;;;;;;-144.89;100.00;52852.59;5056703;28;20048;-82
2021/10/05 00:58:52;;;;;;;37.65;23.92;;;;;;;-144.89;100.00;52852.59;5056553;28;20037;-83
2021/10/05 01:01:37;;;;;;;37.72;25.08;;;;;;;-144.89;100.00;52852.59;5056274;28;20076;-83
2021/10/05 01:04:22;;;;;;;40.83;26.92;;;;;;;-144.89;100.00;52852.59;5057124;28;20068;-82
2021/10/05 01:07:15;;;;;;;42.78;25.98;;;;;;;-144.89;100.00;52852.59;5056374;28;20402;-82
2021/10/05 01:09:59;;;;;;;36.83;24.23;;;;;;;-144.89;100.00;52852.59;5057145;28;20095;-83
2021/10/05 01:12:46;;;;;;;37.25;24.35;;;;;;;-144.89;100.00;52852.59;5042175;28;20045;-83
2021/10/05 01:15:31;;;;;;;43.63;26.83;;;;;;;-144.89;100.00;52852.59;5057027;28;20048;-83
2021/10/05 01:18:15;;;;;;;38.70;25.55;;;;;;;-144.89;100.00;52852.59;5056174;28;20094;-83
2021/10/05 01:21:03;;;;;;;36.65;25.65;;;;;;;-144.89;100.00;52852.59;5042046;28;20045;-83
2021/10/05 01:23:47;;;;;;;44.33;28.30;;;;;;;-144.89;100.00;52852.59;5056115;28;20053;-83
2021/10/05 01:26:32;;;;;;;42.05;26.83;;;;;;;-144.89;100.00;52852.59;5041886;28;20044;-83
2021/10/05 01:29:18;;;;;;;37.92;25.35;;;;;;;-144.89;100.00;52852.59;5041960;28;20048;-83
2021/10/05 01:32:05;;;;;;;43.10;28.73;;;;;;;-144.89;100.00;52852.59;5056821;28;20043;-83
2021/10/05 01:34:49;;;;;;;49.42;29.73;;;;;;;-144.89;100.00;52852.59;5055859;28;20048;-83
2021/10/05 01:37:34;;;;;;;43.33;26.75;;;;;;;-144.89;100.00;52852.59;5055705;28;20119;-84
2021/10/05 01:40:19;;;;;;;47.72;29.08;;;;;;;-144.89;100.00;52852.59;5055863;28;20045;-83
2021/10/05 01:43:03;;;;;;;46.20;29.95;;;;;;;-144.89;100.00;52852.59;5041776;28;20063;-83
2021/10/05 01:45:49;;;;;;;44.53;26.95;;;;;;;-144.89;100.00;52852.59;5055898;28;20052;-83
2021/10/05 01:48:33;;;;;;;43.83;28.75;;;;;;;-144.89;100.00;52852.59;5056338;28;20460;-83
2021/10/05 01:51:17;;;;;;;61.05;31.80;;;;;;;-144.89;100.00;52852.59;5055746;28;20049;-83
2021/10/05 01:54:02;;;;;;;47.20;30.23;;;;;;;-144.89;100.00;52852.59;5055572;28;20041;-83
2021/10/05 01:56:46;;;;;;;59.30;36.25;;;;;;;-144.89;100.00;52852.59;5056206;28;20448;-83
2021/10/05 01:59:31;;;;;;;51.72;33.78;;;;;;;-144.89;100.00;52852.59;5056141;28;20053;-83
2021/10/05 02:02:16;;;;;;;55.92;33.58;;;;;;;-144.89;100.00;52852.59;5056213;28;20049;-83
2021/10/05 02:05:00;;;;;;;51.67;33.83;;;;;;;-144.89;100.00;52852.59;5056140;28;20361;-84
2021/10/05 02:07:45;;;;;;;52.42;35.47;;;;;;;-144.89;100.00;52852.59;5055281;28;20097;-83
2021/10/05 02:10:29;;;;;;;54.67;34.28;;;;;;;-144.89;100.00;52852.59;5055244;28;20044;-83
2021/10/05 02:13:13;;;;;;;48.88;30.73;;;;;;;-144.89;100.00;52852.59;5055285;28;20353;-83
2021/10/05 02:15:58;;;;;;;53.35;32.45;;;;;;;-144.89;100.00;52852.59;5055385;28;20103;-84
2021/10/05 02:18:46;;;;;;;48.13;29.95;;;;;;;-144.89;100.00;52852.59;5055986;28;20041;-84
2021/10/05 02:21:30;;;;;;;48.58;29.40;;;;;;;-144.89;100.00;52852.59;5055185;28;20052;-83
2021/10/05 02:27:05;;;;;;;46.72;30.40;;;;;;;-144.89;100.00;52852.59;5055329;28;20056;-84
2021/10/05 02:29:49;;;;;;;45.80;30.48;;;;;;;-144.89;100.00;52852.59;5055053;28;20037;-83
2021/10/05 02:32:34;;;;;;;46.25;29.63;;;;;;;-144.89;100.00;52852.59;5054902;28;20053;-83
2021/10/05 02:35:18;;;;;;;45.88;28.33;;;;;;;-144.89;100.00;52852.59;5055137;28;20041;-84
2021/10/05 02:38:03;;;;;;;49.97;30.77;;;;;;;-144.89;100.00;52852.59;5055660;28;20041;-84
2021/10/05 02:40:47;;;;;;;48.53;30.60;;;;;;;-144.89;100.00;52852.59;5055673;28;20048;-84
2021/10/05 02:43:32;;;;;;;45.20;27.88;;;;;;;-144.89;100.00;52852.59;5054862;28;20045;-84
2021/10/05 02:46:16;;;;;;;40.00;26.08;;;;;;;-144.89;100.00;52852.59;5055588;28;20484;-84
2021/10/05 02:49:01;;;;;;;39.50;28.40;;;;;;;-144.89;100.00;52852.59;5055720;28;20098;-84
2021/10/05 02:51:45;;;;;;;43.67;28.20;;;;;;;-144.89;100.00;52852.59;5055614;28;20049;-84
2021/10/05 02:54:30;;;;;;;45.13;28.65;;;;;;;-144.89;100.00;52852.59;5040843;28;20075;-84
2021/10/05 02:57:16;;;;;;;42.90;29.13;;;;;;;-144.89;100.00;52852.59;5055560;28;20041;-84
2021/10/05 03:00:01;;;;;;;40.25;27.45;;;;;;;-144.89;100.00;52852.59;5054838;28;20099;-84
2021/10/05 03:02:45;;;;;;;41.00;27.33;;;;;;;-144.89;100.00;52852.59;5054549;28;20049;-84
2021/10/05 03:05:30;;;;;;;42.60;26.23;;;;;;;-144.89;100.00;52852.59;5055299;28;20040;-84
2021/10/05 03:08:14;;;;;;;37.45;25.05;;;;;;;-144.89;100.00;52852.59;5040632;28;20037;-84
2021/10/05 03:10:59;;;;;;;41.47;26.08;;;;;;;-144.89;100.00;52852.59;5054727;28;20041;-84
2021/10/05 03:13:43;;;;;;;43.22;28.58;;;;;;;-144.89;100.00;52852.59;5040550;28;20053;-84
2021/10/05 03:16:28;;;;;;;36.38;25.63;;;;;;;-144.89;100.00;52852.59;5040642;28;20075;-84
2021/10/05 03:19:12;;;;;;;34.30;25.38;;;;;;;-144.89;100.00;52852.59;5055374;28;20041;-84
2021/10/05 03:21:57;;;;;;;33.22;23.38;;;;;;;-144.89;100.00;52852.59;5055405;28;20045;-84
2021/10/05 03:24:42;;;;;;;33.58;24.02;;;;;;;-144.89;100.00;52852.59;5055139;28;20037;-84
2021/10/05 03:27:27;;;;;;;30.83;22.65;;;;;;;-144.89;100.00;52852.59;5054609;28;20045;-84
2021/10/05 03:30:12;;;;;;;31.90;22.67;;;;;;;-144.89;100.00;52852.59;5054520;28;20045;-85
2021/10/05 03:32:57;;;;;;;32.95;23.10;;;;;;;-144.89;100.00;52852.59;5054531;28;20045;-84
2021/10/05 03:35:41;;;;;;;33.40;23.50;;;;;;;-144.89;100.00;52852.59;5055109;28;20403;-84
2021/10/05 03:38:26;;;;;;;30.10;22.40;;;;;;;-144.89;100.00;52852.59;5054422;28;20041;-84
2021/10/05 03:41:11;;;;;;;38.33;25.98;;;;;;;-144.89;100.00;52852.59;5057417;28;20037;-85
2021/10/05 03:43:55;;;;;;;34.22;22.83;;;;;;;-144.89;100.00;52852.59;5058250;28;20044;-85
2021/10/05 03:46:39;;;;;;;34.83;23.83;;;;;;;-144.89;100.00;52852.59;5057783;28;20488;-84
2021/10/05 03:49:24;;;;;;;33.85;25.27;;;;;;;-144.89;100.00;52852.59;5057837;28;20041;-84
2021/10/05 03:52:08;;;;;;;32.28;22.42;;;;;;;-144.89;100.00;52852.59;5058565;28;20124;-85
2021/10/05 03:54:53;;;;;;;27.10;20.30;;;;;;;-144.89;100.00;52852.59;5058590;28;20045;-85
2021/10/05 03:57:38;;;;;;;29.05;21.38;;;;;;;-144.89;100.00;52852.59;5058451;28;20045;-85
2021/10/05 04:00:23;;;;;;;32.42;23.17;;;;;;;-144.89;100.00;52852.59;5057708;28;20041;-85
2021/10/05 04:03:08;;;;;;;33.22;23.63;;;;;;;-144.89;100.00;52852.59;5057474;28;20527;-85
2021/10/05 04:05:53;;;;;;;32.47;21.92;;;;;;;-144.89;100.00;52852.59;5043468;28;20090;-85
2021/10/05 04:08:37;;;;;;;34.38;23.52;;;;;;;-144.89;100.00;52852.59;5043385;28;20037;-85
2021/10/05 04:11:22;;;;;;;33.13;24.42;;;;;;;-144.89;100.00;52852.59;5057409;28;20041;-85
2021/10/05 04:14:06;;;;;;;33.55;24.42;;;;;;;-144.89;100.00;52852.59;5057638;28;20041;-85
2021/10/05 04:16:51;;;;;;;37.45;25.80;;;;;;;-144.89;100.00;52852.59;5058024;28;20068;-85
2021/10/05 04:19:35;;;;;;;31.90;22.25;;;;;;;-144.89;100.00;52852.59;5057999;28;20047;-85
2021/10/05 04:22:19;;;;;;;32.97;22.67;;;;;;;-144.89;100.00;52852.59;5057943;28;20053;-85
2021/10/05 04:25:06;;;;;;;37.20;23.98;;;;;;;-144.89;100.00;52852.59;5058026;28;20417;-85
2021/10/05 04:27:50;;;;;;;34.30;23.55;;;;;;;-144.89;100.00;52852.59;5057287;28;20433;-84
2021/10/05 04:30:35;;;;;;;33.40;23.55;;;;;;;-144.89;100.00;52852.59;5057832;28;20437;-84
2021/10/05 04:33:20;;;;;;;35.17;24.27;;;;;;;-144.89;100.00;52852.59;5057797;28;20052;-84
2021/10/05 04:36:04;;;;;;;35.85;25.02;;;;;;;-144.89;100.00;52852.59;5057040;28;20090;-84
2021/10/05 04:38:49;;;;;;;32.88;23.17;;;;;;;-144.89;100.00;52852.59;5057850;28;20045;-84
2021/10/05 04:41:34;;;;;;;34.00;23.83;;;;;;;-144.89;100.00;52852.59;5057756;28;20064;-85
2021/10/05 04:44:18;;;;;;;39.75;25.40;;;;;;;-144.89;100.00;52852.59;5057671;28;20492;-84
2021/10/05 04:47:03;;;;;;;38.17;25.15;;;;;;;-144.89;100.00;52852.59;5057656;28;20064;-84
2021/10/05 04:49:47;;;;;;;36.17;24.42;;;;;;;-144.89;100.00;52852.59;5057445;28;20045;-84
2021/10/05 04:52:31;;;;;;;35.45;24.88;;;;;;;-144.89;100.00;52852.59;5057244;28;20102;-84
2021/10/05 04:55:16;;;;;;;43.97;27.55;;;;;;;-144.89;100.00;52852.59;5042585;28;20044;-84
2021/10/05 04:58:01;;;;;;;36.53;25.08;;;;;;;-144.89;100.00;52852.59;5057301;28;20434;-84
2021/10/05 05:00:45;;;;;;;39.30;24.15;;;;;;;-144.89;100.00;52852.59;5056851;28;20037;-84
2021/10/05 05:03:30;;;;;;;34.25;25.20;;;;;;;-144.89;100.00;52852.59;5057233;28;20080;-85
2021/10/05 05:06:14;;;;;;;33.05;23.35;;;;;;;-144.89;100.00;52852.59;5056513;28;20040;-85
2021/10/05 05:08:59;;;;;;;56.92;38.83;;;;;;;-144.89;100.00;52852.59;5057260;28;20037;-84
2021/10/05 05:11:43;;;;;;;46.60;32.17;;;;;;;-144.89;100.00;52852.59;5057496;28;20040;-86
2021/10/05 05:14:28;;;;;;;45.28;32.47;;;;;;;-144.89;100.00;52852.59;5044220;28;20048;-87
2021/10/05 05:17:13;;;;;;;42.50;28.83;;;;;;;-144.89;100.00;52852.59;5042996;28;20041;-87
2021/10/05 05:19:57;;;;;;;50.38;30.77;;;;;;;-144.89;100.00;52852.59;5056906;28;20037;-87
2021/10/05 05:22:42;;;;;;;51.17;33.00;;;;;;;-144.89;100.00;52852.59;5056863;28;20104;-87
2021/10/05 05:25:27;;;;;;;48.63;31.98;;;;;;;-144.89;100.00;52852.59;5042611;28;20049;-87
2021/10/05 05:28:11;;;;;;;42.05;29.98;;;;;;;-144.89;100.00;52852.59;5042479;28;20106;-87
2021/10/05 05:30:55;;;;;;;51.30;31.33;;;;;;;-144.89;100.00;52852.59;5056290;28;20041;-87
2021/10/05 05:33:40;;;;;;;44.35;30.60;;;;;;;-144.89;100.00;52852.59;5056635;28;20052;-87
2021/10/05 05:36:25;;;;;;;39.58;26.83;;;;;;;-144.89;100.00;52852.59;5042123;28;20045;-87
2021/10/05 05:39:09;;;;;;;50.92;33.10;;;;;;;-144.89;100.00;52852.59;5055994;28;20041;-88
2021/10/05 05:41:54;;;;;;;56.63;34.80;;;;;;;-144.89;100.00;52852.59;5042191;28;20041;-87
2021/10/05 05:44:40;;;;;;;48.55;33.40;;;;;;;-144.89;100.00;52852.59;5056627;28;20334;-87
2021/10/05 05:47:24;;;;;;;61.58;39.28;;;;;;;-144.89;100.00;52852.59;5055862;28;20045;-88
2021/10/05 05:50:09;;;;;;;51.35;31.85;;;;;;;-144.89;100.00;52852.59;5041729;28;20055;-88
2021/10/05 05:52:53;;;;;;;61.95;37.47;;;;;;;-144.89;100.00;52852.59;5056279;28;20382;-87
2021/10/05 05:55:38;;;;;;;61.72;40.88;;;;;;;-144.89;100.00;52852.59;5056406;28;20471;-87
2021/10/05 05:58:22;;;;;;;51.88;36.35;;;;;;;-144.89;100.00;52852.59;5056920;28;20037;-88
2021/10/05 06:01:06;;;;;;;52.08;36.90;;;;;;;-144.89;100.00;52852.59;5055627;28;20036;-88
2021/10/05 06:03:50;;;;;;;55.28;37.97;;;;;;;-144.89;100.00;52852.59;5054962;28;20047;-88
2021/10/05 06:06:35;;;;;;;50.95;33.17;;;;;;;-144.89;100.00;52852.59;5055462;28;20037;-88
2021/10/05 06:09:19;;;;;;;53.92;35.88;;;;;;;-144.89;100.00;52852.59;5056019;28;20083;-88
2021/10/05 06:12:08;;;;;;;47.80;32.08;;;;;;;-144.89;100.00;52852.59;5055450;28;20425;-88
2021/10/05 06:14:52;;;;;;;47.53;32.13;;;;;;;-144.89;100.00;52852.59;5055958;28;20041;-88
2021/10/05 06:17:41;;;;;;;46.33;30.08;;;;;;;-144.89;100.00;52852.59;5041382;28;20052;-87
2021/10/05 06:20:27;;;;;;;42.53;29.67;;;;;;;-144.89;100.00;52852.59;5056328;28;20048;-87
2021/10/05 06:23:12;;;;;;;42.75;30.33;;;;;;;-144.89;100.00;52852.59;5055315;28;20067;-87
2021/10/05 06:25:56;;;;;;;42.58;28.77;;;;;;;-144.89;100.00;52852.59;5056027;28;20068;-87
2021/10/05 06:28:43;;;;;;;44.00;30.25;;;;;;;-144.89;100.00;52852.59;5055277;28;20045;-88
2021/10/05 06:31:27;;;;;;;36.20;26.85;;;;;;;-144.89;100.00;52852.59;5055828;28;20045;-88
2021/10/05 06:34:12;;;;;;;34.50;24.63;;;;;;;-144.89;100.00;52852.59;5055227;28;20445;-87
2021/10/05 06:36:57;;;;;;;36.60;26.35;;;;;;;-144.89;100.00;52852.59;5041802;28;20041;-84
2021/10/05 06:39:42;;;;;;;48.03;33.25;;;;;;;-144.89;100.00;52852.59;5055900;28;20044;-83
2021/10/05 06:42:28;;;;;;;40.55;29.05;;;;;;;-144.89;100.00;52852.59;5055833;28;20048;-84
2021/10/05 06:45:13;;;;;;;35.33;26.48;;;;;;;-144.89;100.00;52852.59;5055069;28;20048;-83
2021/10/05 06:47:57;;;;;;;45.45;28.00;;;;;;;-144.89;100.00;52852.59;5056350;28;20041;-83
2021/10/05 06:50:42;;;;;;;40.17;27.95;;;;;;;-144.89;100.00;52852.59;5055698;28;20049;-83
2021/10/05 06:53:27;;;;;;;40.45;29.92;;;;;;;-144.89;100.00;52852.59;5055280;28;20065;-84
2021/10/05 06:56:11;;;;;;;35.45;27.30;;;;;;;-144.89;100.00;52852.59;5055560;28;20049;-83
2021/10/05 06:58:56;;;;;;;44.08;32.60;;;;;;;-144.89;100.00;52852.59;5056010;28;20128;-82
2021/10/05 07:01:40;;;;;;;36.38;26.48;;;;;;;-144.89;100.00;52852.59;5054687;28;20060;-82
2021/10/05 07:04:25;;;;;;;32.08;23.70;;;;;;;-144.89;100.00;52852.59;5055940;28;20041;-82
2021/10/05 07:07:09;;;;;;;36.92;24.65;;;;;;;-144.89;100.00;52852.59;5041367;28;20037;-82
2021/10/05 07:09:53;;;;;;;36.85;25.73;;;;;;;-144.89;100.00;52852.59;5055844;28;20053;-82
2021/10/05 07:12:39;;;;;;;33.95;23.20;;;;;;;-144.89;100.00;52852.59;5054879;28;20377;-82
2021/10/05 07:15:23;;;;;;;31.63;23.10;;;;;;;-144.89;100.00;52852.59;5059224;28;20049;-82
2021/10/05 07:18:08;;;;;;;29.95;21.90;;;;;;;-144.89;100.00;52852.59;5059621;28;20054;-82
2021/10/05 07:20:52;;;;;;;32.17;21.63;;;;;;;-144.89;100.00;52852.59;5044503;28;20050;-82
2021/10/05 07:23:37;;;;;;;28.08;20.50;;;;;;;-144.89;100.00;52852.59;5058556;28;20400;-82
2021/10/05 07:26:21;;;;;;;34.33;22.75;;;;;;;-144.89;100.00;52852.59;5059576;28;20437;-83
2021/10/05 07:29:06;;;;;;;26.10;19.67;;;;;;;-144.89;100.00;52852.59;5059174;28;20494;-82
2021/10/05 07:31:51;;;;;;;24.50;16.98;;;;;;;-144.89;100.00;52852.59;5058949;28;20037;-82
2021/10/05 07:34:35;;;;;;;25.52;18.75;;;;;;;-144.89;100.00;52852.59;5059599;28;20368;-81
2021/10/05 07:37:19;;;;;;;25.20;18.50;;;;;;;-144.89;100.00;52852.59;5058675;28;20116;-80
2021/10/05 07:40:04;;;;;;;23.42;16.15;;;;;;;-144.89;100.00;52852.59;5058601;28;20037;-79
2021/10/05 07:42:51;;;;;;;25.20;17.48;;;;;;;-144.89;100.00;52852.59;5043856;28;20102;-81
2021/10/05 07:45:37;;;;;;;25.98;17.67;;;;;;;-144.89;100.00;52852.59;5058676;28;20060;-81
2021/10/05 07:48:21;;;;;;;21.00;16.27;;;;;;;-144.89;100.00;52852.59;5058218;28;20045;-80
2021/10/05 07:51:06;;;;;;;22.48;16.50;;;;;;;-144.89;100.00;52852.59;5056618;28;20056;-82
2021/10/05 07:53:50;;;;;;;23.55;18.08;;;;;;;-144.89;100.00;52852.59;5056344;28;20115;-80
2021/10/05 07:56:35;;;;;;;22.15;15.68;;;;;;;-144.89;100.00;52852.59;5057066;28;20041;-80
2021/10/05 07:59:19;;;;;;;20.67;13.70;;;;;;;-144.89;100.00;52852.59;5057053;28;20041;-84
2021/10/05 08:02:03;;;;;;;22.63;13.45;;;;;;;-144.89;100.00;52852.59;5056279;28;20453;-80
2021/10/05 08:04:48;;;;;;;16.30;12.45;;;;;;;-144.89;100.00;52852.59;5055832;28;20465;-79
2021/10/05 08:07:32;;;;;;;20.42;13.38;;;;;;;-144.89;100.00;52852.59;5056114;28;20406;-81
2021/10/05 08:10:17;;;;;;;19.90;12.40;;;;;;;-144.89;100.00;52852.59;5055685;28;20037;-81
2021/10/05 08:13:02;;;;;;;19.63;12.73;;;;;;;-144.89;100.00;52852.59;5055874;28;20053;-80
2021/10/05 08:15:46;;;;;;;21.05;13.02;;;;;;;-144.89;100.00;52852.59;5057016;28;20045;-85
2021/10/05 08:18:31;;;;;;;24.45;13.68;;;;;;;-144.89;100.00;52852.59;5058369;28;20111;-81
2021/10/05 08:21:16;;;;;;;20.83;12.77;;;;;;;-144.89;100.00;52852.59;5058433;28;20059;-81
2021/10/05 08:24:02;;;;;;;26.67;13.82;;;;;;;-144.89;100.00;52852.59;5058124;28;20421;-78
2021/10/05 08:26:46;;;;;;;20.58;13.27;;;;;;;-144.89;100.00;52852.59;5057202;28;20036;-80
2021/10/05 08:29:33;;;;;;;20.70;11.70;;;;;;;-144.89;100.00;52852.59;5058547;28;20049;-81
2021/10/05 08:32:17;;;;;;;18.55;12.00;;;;;;;-144.89;100.00;52852.59;5057939;28;20040;-82
2021/10/05 08:35:04;;;;;;;15.85;10.52;;;;;;;-144.89;100.00;52852.59;5043358;28;20063;-83
2021/10/05 08:37:49;;;;;;;14.80;11.15;;;;;;;-144.89;100.00;52852.59;5057834;28;20048;-81
2021/10/05 08:40:34;;;;;;;18.30;12.90;;;;;;;-144.89;100.00;52852.59;5057997;28;20041;-79
2021/10/05 08:43:22;;;;;;;22.58;13.27;;;;;;;-144.89;100.00;52852.59;5057781;28;20045;-79
2021/10/05 08:46:07;;;;;;;20.55;13.85;;;;;;;-144.89;100.00;52852.59;5057713;28;20048;-81
2021/10/05 08:48:52;;;;;;;19.00;11.48;;;;;;;-144.89;100.00;52852.59;5058209;28;20040;-80
2021/10/05 08:51:38;;;;;;;17.42;10.15;;;;;;;-144.89;100.00;52852.59;5056889;28;20103;-81
2021/10/05 08:54:23;;;;;;;15.90;10.88;;;;;;;-144.89;100.00;52852.59;5057094;28;20479;-81
2021/10/05 08:57:07;;;;;;;16.27;10.75;;;;;;;-144.89;100.00;52852.59;5057530;28;20041;-80
2021/10/05 08:59:52;;;;;;;14.80;9.52;;;;;;;-144.89;100.00;52852.59;5056710;28;20098;-81
2021/10/05 09:02:45;;;;;;;16.00;8.98;;;;;;;-144.89;100.00;52852.59;5042642;28;20052;-82
2021/10/05 09:05:29;;;;;;;15.27;9.65;;;;;;;-144.89;100.00;52852.59;5057516;28;20045;-83
2021/10/05 09:08:22;;;;;;;18.00;10.40;;;;;;;-144.89;100.00;52852.59;5028852;28;20079;-81
2021/10/05 09:11:08;;;;;;;12.17;8.47;;;;;;;-144.89;100.00;52852.59;5057563;28;20041;-80
2021/10/05 09:13:56;;;;;;;12.82;9.43;;;;;;;-144.89;100.00;52852.59;5057481;28;20041;-82
2021/10/05 09:16:41;;;;;;;15.20;9.77;;;;;;;-144.89;100.00;52852.59;5057152;28;20048;-81
2021/10/05 09:19:26;;;;;;;21.38;12.90;;;;;;;-144.89;100.00;52852.59;5057048;28;20360;-80
2021/10/05 09:22:19;;;;;;;12.18;9.30;;;;;;;-144.89;100.00;52852.59;5057037;28;20437;-81
2021/10/05 09:25:08;;;;;;;10.05;7.88;;;;;;;-144.89;100.00;52852.59;5057004;28;20114;-80
2021/10/05 09:27:53;;;;;;;12.18;7.50;;;;;;;-144.89;100.00;52852.59;5056938;28;20091;-80
2021/10/05 09:30:38;;;;;;;13.20;8.10;;;;;;;-144.89;100.00;52852.59;5042190;28;20045;-80
2021/10/05 09:33:22;;;;;;;11.95;7.78;;;;;;;-144.89;100.00;52852.59;5056296;28;20044;-82
2021/10/05 09:36:07;;;;;;;11.77;7.15;;;;;;;-144.89;100.00;52852.59;5056110;28;20048;-82
2021/10/05 09:39:00;;;;;;;12.98;6.95;;;;;;;-144.89;100.00;52852.59;5056798;28;20041;-82
2021/10/05 09:41:52;;;;;;;13.35;8.13;;;;;;;-144.89;100.00;52852.59;5056516;28;20048;-80
2021/10/05 09:44:37;;;;;;;;;;;;;;;-144.89;100.00;52852.59;5056903;28;20075;-82
2021/10/05 09:47:42;;;;;;;13.38;6.65;;;;;;;-144.89;100.00;52852.59;5056373;28;20241;-83
2021/10/05 09:50:34;;;;;;;11.95;6.45;;;;;;;-144.89;100.00;52852.59;5055539;28;20041;-84
2021/10/05 09:53:20;;;;;;;;;;;;;;;-144.89;100.00;52852.59;5056040;28;20425;-79
2021/10/05 09:56:04;;;;;;;12.48;5.28;;;;;;;-144.89;100.00;52852.59;5056677;28;19920;-87
2021/10/05 09:58:51;;;;;;;12.25;6.53;;;;;;;-144.89;100.00;52852.59;5056194;28;20048;-86
2021/10/05 10:01:38;;;;;;;8.73;6.05;;;;;;;-144.89;100.00;52852.59;5056388;28;20048;-91
2021/10/05 10:04:24;;;;;;;10.40;5.78;;;;;;;-144.89;100.00;52852.59;5056260;28;20059;-87
2021/10/05 10:07:10;;;;;;;9.40;6.53;;;;;;;-144.89;100.00;52852.59;5039708;28;20054;-86
2021/10/05 10:09:55;;;;;;;10.63;5.40;;;;;;;-144.89;100.00;52852.59;5034577;28;20052;-90
2021/10/05 10:12:51;;;;;;;13.02;6.60;;;;;;;-144.89;100.00;52852.59;5038470;28;20048;-91
2021/10/05 10:15:39;;;;;;;11.57;5.85;;;;;;;-144.89;100.00;52852.59;5042676;28;20049;-92
2021/10/05 10:18:24;;;;;;;7.88;4.70;;;;;;;-144.89;100.00;52852.59;5053634;28;20105;-88
2021/10/05 10:21:10;;;;;;;11.38;6.50;;;;;;;-144.89;100.00;52852.59;5054191;28;20044;-87
2021/10/05 10:24:15;;;;;;;10.65;5.13;;;;;;;-144.89;100.00;52852.59;5039535;28;20388;-90
2021/10/05 10:27:02;;;;;;;9.98;5.25;;;;;;;-144.89;100.00;52852.59;5053931;28;20037;-89
2021/10/05 10:29:48;;;;;;;9.35;5.40;;;;;;;-144.89;100.00;52852.59;5039303;28;20422;-89
2021/10/05 10:32:45;;;;;;;13.40;5.60;;;;;;;-144.89;100.00;52852.59;5039239;28;20037;-87
2021/10/05 10:35:30;;;;;;;7.13;5.30;;;;;;;-144.89;100.00;52852.59;5053267;28;20353;-87
2021/10/05 10:38:25;;;;;;;11.82;4.90;;;;;;;-144.89;100.00;52852.59;5054013;28;20044;-83
2021/10/05 10:41:14;;;;;;;8.32;5.25;;;;;;;-144.89;100.00;52852.59;5056436;28;20041;-85
2021/10/05 10:44:02;;;;;;;8.57;5.10;;;;;;;-144.89;100.00;52852.59;5055836;28;20087;-84
2021/10/05 10:46:47;;;;;;;9.35;4.95;;;;;;;-144.89;100.00;52852.59;5056305;28;20041;-85
2021/10/05 10:49:31;;;;;;;7.70;5.18;;;;;;;-144.89;100.00;52852.59;5058616;28;20075;-84
2021/10/05 10:52:29;;;;;;;9.68;5.57;;;;;;;-144.89;100.00;52852.59;5059230;28;20090;-85
2021/10/05 10:55:20;;;;;;;8.65;5.20;;;;;;;-144.89;100.00;52852.59;5059096;28;20400;-84
2021/10/05 10:58:05;;;;;;;6.03;4.85;;;;;;;-144.89;100.00;52852.59;5058772;28;20360;-84
2021/10/05 11:00:51;;;;;;;9.93;5.80;;;;;;;-144.89;100.00;52852.59;5059547;28;20116;-83
2021/10/05 11:03:36;;;;;;;13.95;5.82;;;;;;;-144.89;100.00;52852.59;5059568;28;20077;-88
2021/10/05 11:06:23;;;;;;;7.25;4.88;;;;;;;-144.89;100.00;52852.59;5060109;28;20040;-84
2021/10/05 11:09:08;;;;;;;8.57;5.82;;;;;;;-144.89;100.00;52852.59;5045250;28;20044;-86
2021/10/05 11:11:58;;;;;;;8.52;5.63;;;;;;;-144.89;100.00;52852.59;5045031;28;20057;-84
2021/10/05 11:14:44;;;;;;;10.80;5.50;;;;;;;-144.89;100.00;52852.59;5059815;28;20052;-88
2021/10/05 11:17:33;;;;;;;9.30;4.97;;;;;;;-144.89;100.00;52852.59;5059353;28;20045;-83
2021/10/05 11:20:17;;;;;;;11.07;5.60;;;;;;;-144.89;100.00;52852.59;5059624;28;20037;-82
2021/10/05 11:23:03;;;;;;;7.05;4.70;;;;;;;-144.89;100.00;52852.59;5058619;28;20349;-83
2021/10/05 11:25:51;;;;;;;10.75;5.35;;;;;;;-144.89;100.00;52852.59;5059044;28;20112;-83
2021/10/05 11:28:42;;;;;;;5.47;4.90;;;;;;;-144.89;100.00;52852.59;5059234;28;20059;-84
2021/10/05 11:31:28;;;;;;;11.02;4.93;;;;;;;-144.89;100.00;52852.59;5058496;28;20345;-85
2021/10/05 11:34:13;;;;;;;17.58;6.15;;;;;;;-144.89;100.00;52852.59;5059075;28;20052;-85
2021/10/05 11:37:00;;;;;;;9.98;4.63;;;;;;;-144.89;100.00;52852.59;5059024;28;20045;-85
2021/10/05 11:39:47;;;;;;;7.82;5.10;;;;;;;-144.89;100.00;52852.59;5059191;28;20060;-84
2021/10/05 11:42:31;;;;;;;9.35;5.30;;;;;;;-144.89;100.00;52852.59;5044135;28;20464;-82
2021/10/05 11:45:15;;;;;;;8.00;5.47;;;;;;;-144.89;100.00;52852.59;5058831;28;20072;-85
2021/10/05 11:47:59;;;;;;;8.10;5.45;;;;;;;-144.89;100.00;52852.59;5058252;28;20045;-83
2021/10/05 11:50:44;;;;;;;9.90;5.07;;;;;;;-144.89;100.00;52852.59;5058070;28;20094;-83
2021/10/05 11:53:32;;;;;;;12.32;5.72;;;;;;;-144.89;100.00;52852.59;5058821;28;20037;-83
2021/10/05 11:56:21;;;;;;;6.55;4.95;;;;;;;-144.89;100.00;52852.59;5058364;28;20045;-83
2021/10/05 11:59:05;;;;;;;10.60;5.05;;;;;;;-144.89;100.00;52852.59;5057343;28;20041;-85
2021/10/05 12:01:56;;;;;;;5.50;4.50;;;;;;;-144.89;100.00;52852.59;5057058;28;20045;-85
2021/10/05 12:04:44;;;;;;;10.18;5.40;;;;;;;-144.89;100.00;52852.59;5057792;28;20037;-85
2021/10/05 12:07:30;;;;;;;6.90;5.45;;;;;;;-144.89;100.00;52852.59;5043708;28;20047;-84
2021/10/05 12:10:17;;;;;;;6.13;5.50;;;;;;;-144.89;100.00;52852.59;5043914;28;20041;-85
2021/10/05 12:13:01;;;;;;;8.73;5.25;;;;;;;-144.89;100.00;52852.59;5057602;28;20323;-84
2021/10/05 12:15:46;;;;;;;7.95;5.13;;;;;;;-144.89;100.00;52852.59;5058137;28;20120;-85
2021/10/05 12:18:31;;;;;;;19.65;5.85;;;;;;;-144.89;100.00;52852.59;5058113;28;20060;-81
2021/10/05 12:21:15;;;;;;;7.25;6.13;;;;;;;-144.89;100.00;52852.59;5058202;28;20037;-83